Time;durP1;ratioP1;P1;durP2;ratioP2;P2;SDS_P1;SDS_P2;PMS_P1;PMS_P2;Temp;Humidity;BMP_temperature;BMP_pressure;BME280_temperature;BME280_humidity;BME280_pressure;Samples;Min_cycle;Max_cycle;Signal;HPM_P1;HPM_P2
2022/03/09 00:01:03;;;;;;;16.10;7.40;;;;;;;3.40;38.66;98563.47;12803100;23;20021;-75
2022/03/09 00:07:26;;;;;;;15.52;8.90;;;;;;;3.17;39.25;98555.53;12776785;23;20025;-75
2022/03/09 00:13:17;;;;;;;17.35;8.50;;;;;;;3.16;39.05;98562.31;12798299;23;20025;-75
2022/03/09 00:19:41;;;;;;;15.70;7.53;;;;;;;3.11;39.33;98559.66;12782914;23;20087;-75
2022/03/09 00:26:04;;;;;;;15.65;8.10;;;;;;;3.08;39.49;98550.41;12729456;23;20022;-75
2022/03/09 00:31:54;;;;;;;14.88;8.13;;;;;;;3.00;38.89;98560.56;12762970;23;20029;-75
2022/03/09 00:38:15;;;;;;;14.50;8.18;;;;;;;2.94;40.07;98553.63;12780304;23;20392;-76
2022/03/09 00:44:08;;;;;;;18.63;9.07;;;;;;;2.97;39.90;98555.34;12772826;23;20029;-75
2022/03/09 00:49:59;;;;;;;15.82;8.70;;;;;;;2.96;39.36;98571.13;12771278;23;20440;-75
2022/03/09 00:56:22;;;;;;;16.83;8.75;;;;;;;2.85;40.00;98571.31;12771297;23;20025;-75
2022/03/09 01:03:25;;;;;;;17.48;9.32;;;;;;;2.77;40.36;98565.63;12770412;23;20021;-75
2022/03/09 01:09:55;;;;;;;17.45;7.68;;;;;;;2.70;40.26;98576.50;12739796;23;20026;-75
2022/03/09 01:15:46;;;;;;;15.75;8.65;;;;;;;2.86;40.34;98572.78;12724397;23;20022;-75
2022/03/09 01:21:38;;;;;;;18.65;8.13;;;;;;;3.06;40.70;98566.72;12780581;23;20385;-75
2022/03/09 01:27:31;;;;;;;18.40;8.77;;;;;;;3.23;40.03;98565.75;12802100;23;20337;-75
2022/03/09 01:33:20;;;;;;;15.77;8.95;;;;;;;3.39;40.10;98568.25;12753536;23;20432;-75
2022/03/09 01:40:15;;;;;;;17.40;8.65;;;;;;;3.47;40.38;98565.59;12787169;23;20025;-75
2022/03/09 01:46:05;;;;;;;15.85;8.35;;;;;;;3.56;40.22;98547.88;12784667;23;20025;-76
2022/03/09 01:53:05;;;;;;;15.77;8.70;;;;;;;3.55;40.61;98547.13;12772349;23;20029;-75
2022/03/09 01:58:58;;;;;;;19.45;8.90;;;;;;;3.56;40.59;98548.63;12800727;23;20053;-75
2022/03/09 02:05:52;;;;;;;18.13;8.82;;;;;;;3.64;41.18;98549.50;12771168;23;20021;-76
2022/03/09 02:11:52;;;;;;;20.05;8.95;;;;;;;3.63;41.51;98542.50;12800768;23;20025;-75
2022/03/09 02:18:17;;;;;;;18.60;8.95;;;;;;;3.62;41.65;98546.53;12779351;23;20442;-75
2022/03/09 02:24:41;;;;;;;14.25;8.57;;;;;;;3.65;41.36;98550.97;12784628;23;20024;-75
2022/03/09 02:30:35;;;;;;;16.67;8.88;;;;;;;3.68;41.58;98563.75;12758116;23;20036;-75
2022/03/09 02:37:05;;;;;;;13.70;8.18;;;;;;;3.79;41.32;98564.81;12764514;23;20029;-75
2022/03/09 02:52:32;;;;;;;17.45;8.95;;;;;;;3.73;41.73;98546.31;12800343;23;20021;-75
2022/03/09 02:58:32;;;;;;;16.95;8.77;;;;;;;3.67;41.81;98540.19;12768686;23;20021;-75
2022/03/09 03:04:52;;;;;;;16.45;8.57;;;;;;;3.60;41.97;98532.50;12770572;23;20025;-75
2022/03/09 03:11:20;;;;;;;15.50;8.77;;;;;;;3.49;41.56;98521.66;12784222;23;20076;-75
2022/03/09 03:26:07;;;;;;;17.40;8.98;;;;;;;3.04;41.83;98532.66;12821344;23;20017;-75
2022/03/09 03:31:59;;;;;;;21.77;9.18;;;;;;;2.86;42.38;98528.66;12788782;23;20053;-75
2022/03/09 03:37:59;;;;;;;15.45;8.40;;;;;;;2.73;42.78;98545.91;12755119;23;20029;-75
2022/03/09 03:51:25;;;;;;;19.23;10.13;;;;;;;2.48;43.23;98541.72;12802905;23;20070;-75
2022/03/09 03:57:47;;;;;;;18.35;9.48;;;;;;;2.38;43.03;98544.09;12786932;23;20025;-75
2022/03/09 04:04:09;;;;;;;19.38;9.48;;;;;;;2.34;43.28;98540.91;12803476;23;20033;-75
2022/03/09 04:10:00;;;;;;;15.00;8.57;;;;;;;2.23;43.21;98536.28;12773433;23;20056;-75
2022/03/09 04:23:58;;;;;;;17.77;9.73;;;;;;;1.97;43.87;98542.31;12786656;23;20017;-75
2022/03/09 04:46:37;;;;;;;21.88;11.75;;;;;;;1.66;44.99;98562.16;12824954;23;20013;-75
2022/03/09 05:09:14;;;;;;;19.98;10.20;;;;;;;1.41;45.12;98556.59;12801993;23;20315;-76
2022/03/09 05:41:31;;;;;;;17.10;9.18;;;;;;;1.83;45.68;98573.75;12802652;23;19986;-75
2022/03/09 05:54:49;;;;;;;18.48;10.50;;;;;;;6.11;42.72;98580.13;12782532;23;20021;-75
2022/03/09 06:00:46;;;;;;;16.70;10.07;;;;;;;7.94;39.91;98594.56;12770108;23;20025;-75
2022/03/09 06:07:07;;;;;;;19.15;10.38;;;;;;;7.81;39.09;98597.50;12754986;23;20025;-75
2022/03/09 06:14:07;;;;;;;18.33;12.35;;;;;;;10.73;35.55;98605.22;12786066;23;20024;-75
2022/03/09 06:20:38;;;;;;;21.95;13.65;;;;;;;13.38;32.65;98613.91;12801724;23;20025;-76
2022/03/09 06:26:37;;;;;;;21.55;13.27;;;;;;;15.11;31.20;98611.44;12799387;23;20021;-76
2022/03/09 06:33:30;;;;;;;22.52;14.73;;;;;;;16.69;28.41;98609.00;12784790;23;20033;-76
2022/03/09 06:56:37;;;;;;;20.77;11.82;;;;;;;20.00;23.20;98625.16;12800359;23;20042;-75
2022/03/09 07:01:58;;;;;;;22.23;13.20;;;;;;;17.85;23.27;98628.78;12799939;23;20283;-76
2022/03/09 07:07:19;;;;;;;22.92;12.98;;;;;;;20.50;21.51;98631.59;12784795;23;20075;-75
2022/03/09 07:12:41;;;;;;;22.52;12.45;;;;;;;22.92;19.00;98637.22;12741447;23;20027;-75
2022/03/09 07:18:02;;;;;;;24.42;12.30;;;;;;;23.91;16.94;98642.44;12761815;23;20432;-75
2022/03/09 07:23:24;;;;;;;19.20;11.20;;;;;;;24.79;15.99;98642.69;12781722;23;20392;-75
2022/03/09 07:28:47;;;;;;;17.95;11.82;;;;;;;25.89;14.86;98644.59;12782912;23;20017;-75
2022/03/09 07:34:08;;;;;;;20.13;11.10;;;;;;;26.74;14.48;98645.53;12782146;23;20462;-75
2022/03/09 07:39:29;;;;;;;17.60;11.63;;;;;;;26.46;12.46;98649.34;12774591;23;20021;-76
2022/03/09 07:44:52;;;;;;;19.30;12.00;;;;;;;24.99;14.16;98636.75;12781308;23;20040;-77
2022/03/09 07:50:13;;;;;;;20.52;12.60;;;;;;;22.72;15.23;98642.19;12760832;23;20021;-75
2022/03/09 07:55:34;;;;;;;23.60;14.18;;;;;;;21.46;16.00;98646.13;12798883;23;20309;-76
2022/03/09 08:00:57;;;;;;;25.85;14.05;;;;;;;20.96;17.33;98640.59;12777775;23;20013;-76
2022/03/09 08:06:17;;;;;;;21.00;13.23;;;;;;;21.81;18.22;98646.06;12785387;23;20021;-77
2022/03/09 08:11:38;;;;;;;20.83;13.93;;;;;;;24.24;16.14;98655.50;12821539;23;20024;-79
2022/03/09 08:17:02;;;;;;;22.45;12.65;;;;;;;28.47;11.92;98648.03;12781362;23;20017;-79
2022/03/09 08:22:23;;;;;;;21.83;13.52;;;;;;;33.02;10.56;98648.13;12778682;23;20021;-81
2022/03/09 08:27:43;;;;;;;22.60;13.80;;;;;;;36.37;8.22;98649.81;12799007;23;20013;-79
2022/03/09 08:33:05;;;;;;;17.17;12.15;;;;;;;38.83;7.09;98651.34;12798993;23;20016;-80
2022/03/09 08:38:26;;;;;;;20.77;13.23;;;;;;;39.40;5.37;98646.53;12797825;23;20056;-79
2022/03/09 08:43:47;;;;;;;22.52;12.65;;;;;;;40.55;5.34;98647.44;12759898;23;20064;-80
2022/03/09 08:49:10;;;;;;;16.98;12.40;;;;;;;41.47;4.04;98637.84;12781048;23;20017;-80
2022/03/09 08:54:32;;;;;;;17.00;10.77;;;;;;;42.75;4.42;98625.38;12800497;23;20067;-81
2022/03/09 08:59:53;;;;;;;18.55;10.70;;;;;;;42.67;2.85;98620.66;12779691;23;20433;-80
2022/03/09 09:05:15;;;;;;;10.75;7.55;;;;;;;43.61;2.95;98630.59;12759436;23;20028;-80
2022/03/09 09:10:36;;;;;;;10.05;5.78;;;;;;;44.58;2.85;98629.81;12779364;23;20328;-80
2022/03/09 09:15:58;;;;;;;6.68;5.15;;;;;;;45.81;2.67;98636.53;12759716;23;20021;-80
2022/03/09 09:21:23;;;;;;;6.38;5.38;;;;;;;45.20;2.25;98622.53;12741343;23;20313;-80
2022/03/09 09:26:44;;;;;;;8.23;4.88;;;;;;;45.94;2.04;98639.41;12738194;23;20025;-79
2022/03/09 09:32:16;;;;;;;11.95;7.13;;;;;;;45.13;1.71;98621.47;12762468;23;20424;-79
2022/03/09 09:37:39;;;;;;;12.88;8.35;;;;;;;43.99;2.43;98619.75;12739840;23;20017;-79
2022/03/09 09:43:01;;;;;;;14.40;9.57;;;;;;;43.48;2.49;98612.94;12777976;23;20027;-79
2022/03/09 09:48:22;;;;;;;17.40;9.57;;;;;;;42.83;2.58;98611.03;12799212;23;20020;-79
2022/03/09 09:53:44;;;;;;;12.88;9.85;;;;;;;42.54;2.85;98611.72;12799042;23;20428;-79
2022/03/09 09:59:06;;;;;;;18.40;9.80;;;;;;;42.77;2.88;98622.38;12778235;23;20017;-80
2022/03/09 10:04:27;;;;;;;12.93;9.07;;;;;;;42.43;2.88;98615.91;12814841;23;20081;-79
2022/03/09 10:09:48;;;;;;;12.50;9.00;;;;;;;42.64;2.84;98606.88;12778404;23;20344;-80
2022/03/09 10:15:10;;;;;;;14.65;7.68;;;;;;;42.04;3.13;98611.84;12778163;23;20017;-79
2022/03/09 10:20:31;;;;;;;14.25;7.75;;;;;;;41.18;3.03;98603.88;12799559;23;20024;-80
2022/03/09 10:26:00;;;;;;;13.27;8.15;;;;;;;41.15;3.12;98599.63;12798959;23;20020;-79
2022/03/09 10:31:41;;;;;;;8.52;6.57;;;;;;;42.74;2.60;98588.75;12799209;23;20021;-79
2022/03/09 10:37:04;;;;;;;6.82;4.90;;;;;;;43.40;2.28;98584.66;12779331;23;20023;-79
2022/03/09 10:42:25;;;;;;;6.45;5.05;;;;;;;43.38;2.50;98581.84;12784421;23;20318;-79
2022/03/09 10:48:14;;;;;;;7.32;4.93;;;;;;;43.66;2.24;98573.03;12762227;23;20025;-80
2022/03/09 10:53:45;;;;;;;8.93;5.32;;;;;;;44.64;1.59;98568.34;12763294;23;20075;-79
2022/03/09 10:59:10;;;;;;;7.50;5.47;;;;;;;44.72;1.79;98570.13;12781905;23;20013;-80
2022/03/09 11:04:31;;;;;;;7.68;4.97;;;;;;;42.93;1.64;98562.84;12782359;23;20021;-78
2022/03/09 11:09:52;;;;;;;6.57;4.57;;;;;;;36.29;2.51;98557.72;12782352;23;20121;-77
2022/03/09 11:15:14;;;;;;;7.40;5.43;;;;;;;31.71;4.60;98551.38;12802618;23;20017;-77
2022/03/09 11:20:35;;;;;;;5.65;4.07;;;;;;;29.29;5.25;98555.38;12802477;23;20032;-76
2022/03/09 11:26:00;;;;;;;8.43;4.95;;;;;;;27.73;6.11;98551.78;12803252;23;20024;-76
2022/03/09 11:31:21;;;;;;;6.97;4.72;;;;;;;26.71;6.92;98549.56;12822635;23;20097;-77
2022/03/09 11:36:42;;;;;;;5.13;3.83;;;;;;;25.08;8.25;98540.63;12802477;23;20072;-77
2022/03/09 11:42:22;;;;;;;4.30;3.17;;;;;;;23.59;9.35;98536.03;12801802;23;20017;-76
2022/03/09 11:48:17;;;;;;;3.73;2.27;;;;;;;22.69;10.44;98543.94;12762147;23;20100;-76
2022/03/09 11:53:46;;;;;;;3.72;2.22;;;;;;;21.64;10.11;98538.88;12802599;23;20259;-76
2022/03/09 11:59:26;;;;;;;7.78;2.65;;;;;;;21.43;12.07;98537.41;12822166;23;20017;-76
2022/03/09 12:04:49;;;;;;;4.85;3.35;;;;;;;20.91;11.99;98536.09;12781351;23;20018;-77
2022/03/09 12:10:11;;;;;;;6.25;3.80;;;;;;;20.26;12.40;98531.31;12801596;23;20013;-76
2022/03/09 12:15:36;;;;;;;10.35;3.55;;;;;;;20.48;12.70;98534.38;12780955;23;20024;-77
2022/03/09 12:20:57;;;;;;;5.00;3.47;;;;;;;20.01;13.04;98532.41;12782224;23;20021;-76
2022/03/09 12:26:37;;;;;;;5.68;3.20;;;;;;;19.69;14.01;98529.63;12780693;23;20021;-76
2022/03/09 12:32:02;;;;;;;7.85;4.03;;;;;;;19.62;14.20;98518.66;12760128;23;20024;-77
2022/03/09 12:37:24;;;;;;;8.98;4.75;;;;;;;19.26;14.19;98520.53;12780371;23;20021;-76
2022/03/09 12:42:57;;;;;;;6.45;4.47;;;;;;;19.12;15.01;98500.81;12781582;23;20021;-76
2022/03/09 12:48:22;;;;;;;7.18;3.97;;;;;;;19.06;15.06;98501.25;12800819;23;20017;-76
2022/03/09 12:53:43;;;;;;;7.72;3.85;;;;;;;18.64;15.25;98499.97;12780401;23;20013;-76
2022/03/09 12:59:13;;;;;;;6.75;4.07;;;;;;;18.47;15.28;98509.03;12801353;23;20416;-76
2022/03/09 13:04:34;;;;;;;6.95;4.15;;;;;;;18.00;16.08;98504.63;12780259;23;20021;-76
2022/03/09 13:10:10;;;;;;;9.27;4.68;;;;;;;17.82;16.61;98503.69;12800736;23;20021;-76
2022/03/09 13:15:45;;;;;;;7.68;4.32;;;;;;;17.56;17.67;98497.38;12800841;23;20067;-78
2022/03/09 13:21:07;;;;;;;7.38;4.47;;;;;;;17.20;16.75;98487.75;12821143;23;20339;-77
2022/03/09 13:26:37;;;;;;;6.38;2.50;;;;;;;16.98;18.00;98492.91;12800581;23;20056;-77
2022/03/09 13:31:58;;;;;;;4.35;2.40;;;;;;;17.17;17.41;98491.81;12799981;23;20024;-76
2022/03/09 13:37:20;;;;;;;5.38;2.17;;;;;;;16.94;17.69;98475.06;12780555;23;20013;-77
2022/03/09 13:42:43;;;;;;;5.20;2.60;;;;;;;17.04;17.68;98479.16;12760681;23;20025;-76
2022/03/09 13:48:04;;;;;;;6.10;2.70;;;;;;;17.21;17.86;98472.28;12779221;23;20239;-76
2022/03/09 13:53:33;;;;;;;4.30;2.42;;;;;;;17.15;17.38;98483.25;12739793;23;20024;-76
2022/03/09 13:58:54;;;;;;;4.95;2.50;;;;;;;17.08;17.61;98487.09;12800462;23;20013;-76
2022/03/09 14:04:14;;;;;;;7.57;3.67;;;;;;;17.02;17.73;98475.50;12774974;23;20024;-76
2022/03/09 14:09:35;;;;;;;6.85;4.22;;;;;;;16.57;17.76;98464.56;12758568;23;20040;-77
2022/03/09 14:15:25;;;;;;;7.03;3.60;;;;;;;16.54;18.01;98457.34;12769749;23;20021;-77
2022/03/09 14:20:46;;;;;;;8.40;3.85;;;;;;;16.10;18.46;98466.84;12758840;23;20032;-78
2022/03/09 15:44:15;;;;;;;7.30;4.43;;;;;;;14.07;22.24;98463.53;12826412;22;20096;-77
2022/03/09 16:34:21;;;;;;;6.78;3.50;;;;;;;12.36;24.66;98482.66;12800530;23;20479;-75
2022/03/09 16:56:29;;;;;;;7.03;4.22;;;;;;;11.55;25.93;98494.91;12803159;23;20436;-75
2022/03/09 17:03:25;;;;;;;9.25;4.30;;;;;;;11.38;26.77;98506.16;12771670;23;20021;-75
2022/03/09 17:09:15;;;;;;;9.05;3.92;;;;;;;11.02;26.97;98520.88;12803472;23;20420;-75
2022/03/09 17:15:06;;;;;;;6.65;3.33;;;;;;;10.78;27.66;98530.84;12782419;23;20033;-75
2022/03/09 17:20:31;;;;;;;7.35;2.92;;;;;;;10.53;27.22;98531.72;12802385;23;20013;-76
2022/03/09 17:25:52;;;;;;;6.57;3.00;;;;;;;10.33;27.94;98538.47;12825242;23;20409;-76
2022/03/09 17:31:41;;;;;;;7.25;3.33;;;;;;;10.24;28.50;98541.91;12766491;23;20025;-77
2022/03/09 17:37:04;;;;;;;8.18;3.40;;;;;;;10.15;28.48;98551.66;12818505;23;20013;-77
2022/03/09 17:43:25;;;;;;;6.63;3.20;;;;;;;9.96;29.46;98559.84;12779904;23;20021;-76
2022/03/09 17:49:16;;;;;;;8.02;3.58;;;;;;;9.94;29.62;98568.78;12792800;23;20021;-75
2022/03/09 17:55:10;;;;;;;6.68;2.97;;;;;;;9.85;29.64;98571.47;12755239;23;20100;-77
2022/03/09 18:00:31;;;;;;;8.98;3.53;;;;;;;9.70;30.02;98567.47;12780986;23;20024;-78
2022/03/09 18:05:52;;;;;;;8.75;3.50;;;;;;;9.66;30.28;98571.97;12770109;23;20013;-77
2022/03/09 18:11:13;;;;;;;10.90;4.53;;;;;;;9.55;30.21;98581.50;12800338;23;20017;-77
2022/03/09 18:16:51;;;;;;;6.72;3.97;;;;;;;9.45;30.58;98584.19;12787525;23;20017;-77
2022/03/09 18:22:13;;;;;;;8.48;4.72;;;;;;;9.33;30.89;98579.63;12779994;23;20336;-76
2022/03/09 18:27:36;;;;;;;9.63;4.72;;;;;;;9.24;30.90;98594.16;12759848;23;20060;-77
2022/03/09 18:32:56;;;;;;;7.28;4.90;;;;;;;9.17;31.00;98598.50;12801997;23;20333;-77
2022/03/09 18:38:17;;;;;;;12.13;5.10;;;;;;;9.10;31.70;98591.66;12780285;23;20328;-77
2022/03/09 18:43:38;;;;;;;7.65;5.25;;;;;;;9.06;32.01;98590.53;12779745;23;20167;-75
2022/03/09 18:49:27;;;;;;;13.35;5.45;;;;;;;8.92;31.74;98606.03;12755769;23;20021;-77
2022/03/09 18:54:53;;;;;;;9.43;5.05;;;;;;;8.87;32.09;98605.66;12780030;23;20027;-77
2022/03/09 19:01:16;;;;;;;10.82;6.07;;;;;;;8.75;32.46;98618.53;12772526;23;20038;-77
2022/03/09 19:06:40;;;;;;;9.98;6.05;;;;;;;8.68;32.77;98612.97;12813048;23;20305;-76
2022/03/09 19:12:07;;;;;;;14.60;7.07;;;;;;;8.60;32.79;98619.31;12766821;23;20021;-77
2022/03/09 19:17:29;;;;;;;11.90;7.05;;;;;;;8.55;32.88;98617.47;12762620;23;20017;-77
2022/03/09 19:23:18;;;;;;;12.02;6.10;;;;;;;8.48;33.01;98620.25;12759203;23;20357;-77
2022/03/09 19:28:41;;;;;;;10.55;6.22;;;;;;;8.37;33.63;98629.75;12763451;23;20499;-78
2022/03/09 19:34:30;;;;;;;13.25;6.30;;;;;;;8.32;33.52;98639.75;12773800;23;20052;-77
2022/03/09 19:39:51;;;;;;;11.45;5.80;;;;;;;8.26;33.72;98636.41;12824081;23;20013;-77
2022/03/09 19:45:12;;;;;;;9.98;5.50;;;;;;;8.24;33.48;98643.84;12781540;23;20114;-76
2022/03/09 19:50:32;;;;;;;11.02;5.75;;;;;;;8.11;33.74;98641.25;12772675;23;20017;-76
2022/03/09 19:55:53;;;;;;;12.30;5.15;;;;;;;8.01;34.29;98635.50;12782742;23;20024;-77
2022/03/09 20:01:15;;;;;;;10.45;5.47;;;;;;;7.92;34.63;98633.28;12721904;23;20428;-77
2022/03/09 20:06:36;;;;;;;9.60;5.60;;;;;;;7.88;34.89;98636.44;12803322;23;20040;-77
2022/03/09 20:11:58;;;;;;;9.55;5.60;;;;;;;7.88;34.79;98641.97;12781280;23;20021;-78
2022/03/09 20:17:25;;;;;;;9.90;5.72;;;;;;;7.81;35.28;98650.31;12782694;23;20017;-77
2022/03/09 20:22:50;;;;;;;11.52;6.18;;;;;;;7.70;35.23;98651.41;12782319;23;20017;-78
2022/03/09 20:28:39;;;;;;;8.05;4.93;;;;;;;7.58;35.78;98653.81;12772516;23;20057;-78
2022/03/09 20:34:02;;;;;;;11.32;6.55;;;;;;;7.49;35.55;98659.91;12781553;23;20021;-77
2022/03/09 20:39:24;;;;;;;12.00;6.57;;;;;;;7.47;35.55;98659.72;12803852;23;20013;-77
2022/03/09 20:44:45;;;;;;;8.95;5.63;;;;;;;7.46;35.56;98666.56;12782862;23;20439;-77
2022/03/09 20:50:35;;;;;;;12.27;7.53;;;;;;;7.38;35.88;98677.66;12756060;23;20397;-77
2022/03/09 20:56:31;;;;;;;9.77;7.03;;;;;;;7.28;35.95;98671.16;12773568;23;20025;-77
2022/03/09 21:01:53;;;;;;;10.32;6.47;;;;;;;7.21;36.17;98671.84;12801711;23;20013;-77
2022/03/09 21:07:15;;;;;;;10.07;5.85;;;;;;;7.26;36.31;98678.53;12760967;23;20440;-77
2022/03/09 21:13:03;;;;;;;10.73;6.05;;;;;;;7.19;36.75;98680.00;12787475;23;20029;-77
2022/03/09 21:18:27;;;;;;;10.07;6.25;;;;;;;7.17;36.74;98685.34;12761720;23;20019;-77
2022/03/09 21:23:47;;;;;;;11.82;6.15;;;;;;;7.09;36.93;98696.44;12801364;23;20013;-77
2022/03/09 21:29:08;;;;;;;12.32;5.75;;;;;;;7.05;37.24;98696.06;12761372;23;20020;-77
2022/03/09 21:34:59;;;;;;;10.70;6.90;;;;;;;7.04;37.48;98686.22;12757930;23;20025;-77
2022/03/09 21:40:51;;;;;;;11.75;6.68;;;;;;;6.95;37.29;98700.63;12772348;23;20417;-77
2022/03/09 21:46:12;;;;;;;14.68;7.95;;;;;;;6.88;37.46;98704.09;12802232;23;20017;-77
2022/03/09 21:51:33;;;;;;;14.70;7.45;;;;;;;6.77;37.99;98696.09;12758963;23;20032;-77
2022/03/09 21:57:32;;;;;;;12.23;6.90;;;;;;;6.66;37.96;98696.38;12771333;23;20425;-77
2022/03/09 22:03:21;;;;;;;12.02;7.25;;;;;;;6.53;38.13;98692.41;12755879;23;20065;-77
2022/03/09 22:09:13;;;;;;;14.15;7.80;;;;;;;6.47;38.64;98697.38;12771786;23;20029;-77
2022/03/09 22:14:34;;;;;;;12.13;6.68;;;;;;;6.42;38.62;98711.38;12781037;23;20024;-77
2022/03/09 22:19:56;;;;;;;12.00;7.22;;;;;;;6.25;38.67;98709.78;12778717;23;20417;-77
2022/03/09 22:25:19;;;;;;;18.17;8.63;;;;;;;6.13;38.92;98708.56;12779825;23;20044;-77
2022/03/09 22:30:42;;;;;;;15.15;8.32;;;;;;;6.12;39.46;98709.13;12799821;23;20013;-77
2022/03/09 22:36:12;;;;;;;11.90;7.40;;;;;;;6.01;39.55;98710.88;12780267;23;20088;-77
2022/03/09 22:41:34;;;;;;;11.30;8.00;;;;;;;5.95;39.40;98718.56;12780251;23;20412;-77
2022/03/09 22:46:55;;;;;;;14.82;7.18;;;;;;;5.82;39.69;98721.38;12778670;23;20017;-77
2022/03/09 22:52:18;;;;;;;11.35;7.38;;;;;;;5.73;39.83;98719.06;12768040;23;20028;-77
2022/03/09 22:58:07;;;;;;;12.07;7.85;;;;;;;5.69;40.16;98736.03;12769451;23;20021;-77
2022/03/09 23:03:56;;;;;;;12.45;6.97;;;;;;;5.69;39.98;98733.25;12784105;23;20092;-77
2022/03/09 23:09:16;;;;;;;14.45;7.57;;;;;;;5.66;39.90;98733.56;12778942;23;20084;-77
2022/03/09 23:14:38;;;;;;;15.07;7.32;;;;;;;5.59;40.23;98734.22;12778945;23;20087;-77
2022/03/09 23:20:26;;;;;;;13.07;7.50;;;;;;;5.57;40.76;98734.78;12770658;23;20021;-77
2022/03/09 23:25:47;;;;;;;10.85;6.38;;;;;;;5.52;40.20;98740.44;12778950;23;20424;-77
2022/03/09 23:31:09;;;;;;;11.77;6.88;;;;;;;5.36;40.54;98742.28;12758893;23;20017;-77
2022/03/09 23:36:29;;;;;;;11.93;7.32;;;;;;;5.30;40.80;98742.38;12780054;23;20316;-78
2022/03/09 23:41:58;;;;;;;10.52;7.10;;;;;;;5.28;41.24;98744.97;12798847;23;20428;-77
2022/03/09 23:47:21;;;;;;;10.68;6.85;;;;;;;5.25;41.10;98750.81;12759525;23;20023;-77
2022/03/09 23:52:41;;;;;;;11.07;7.18;;;;;;;5.19;41.09;98753.69;12748823;23;20024;-77
2022/03/09 23:58:31;;;;;;;11.07;6.80;;;;;;;5.05;41.56;98755.75;12773962;23;20331;-77
